Fremont Valley, California
Current Conditions -  °F | °C
As of 9:15 AM on Thursday 27 Nov 2014 (Local Time) from KMHV Reporting Station
Clear Clear  
Wind Chill: 57°   Ceiling: Unl
Heat Index: 57°   Visibility: 10mi
Dew Point: 18°   Wind: 0mph
Humidity: 21%   Direction: NA
Pressure: 30.3"   Gusts: NA
Location:  35.0508°N, 118.171°W
Report Text: KMHV 271715Z AUTO 00000KT 10SM CLR 14/M08 A3030 RMK AO1
Loading
Personal Weather Stations






























Interactive Weather Map New forecast layout! Learn more

10-Day Weather Forecast

Advertisements
Track Severe Weather on mobile